Taiseimaru — JL6483 — position and weather

sailwx.info

Track history (hours):
 
Tides and Currents Weather Stations Pressure Air Temp Water Temp Dewpoint Dewpoint Depression Visibility Wind Speed Wind Dir Waves Ship Positions

Taiseimaru

Last reported at 2015-Feb-28 00:19 UTC. Time now 2015-Feb-28 23:08 UTC.
Position N 34°58' E 139°43'.

Length 84 m; draft 4.7 m.

Type: Cargo ship. MMSI: 431500568.

Date/timePositionNaut miles runAvg speedWind from/ knotsBaromVisibWave heightAir tempDewpointWater temp
2015-Feb-28 00:19N 34°58' E 139°43'811.1
2015-Feb-27 23:33N 35°06' E 139°44'1111.1
2015-Feb-27 22:33N 35°17' E 139°45'5 4.9
2015-Feb-27 21:32N 35°21' E 139°41'0 0.0
2015-Feb-27 20:34N 35°21' E 139°41'0 0.0
2015-Feb-27 19:34N 35°21' E 139°41'0 0.0
2015-Feb-27 18:33N 35°21' E 139°41'0 0.0
2015-Feb-27 17:33N 35°21' E 139°41'0 0.0
2015-Feb-27 16:33N 35°21' E 139°41'0 0.0
2015-Feb-27 15:33N 35°21' E 139°41'0 0.0
2015-Feb-27 14:33N 35°21' E 139°41'0 0.0
2015-Feb-27 13:33N 35°21' E 139°41'0 0.0
2015-Feb-27 12:33N 35°21' E 139°41'0 0.0
2015-Feb-27 11:33N 35°21' E 139°41'0 0.0
2015-Feb-27 10:31N 35°21' E 139°41'0 0.0
2015-Feb-27 09:31N 35°21' E 139°41'0 0.0
2015-Feb-27 08:31N 35°21' E 139°41'0 0.0
2015-Feb-27 07:31N 35°21' E 139°41'0 0.1
2015-Feb-27 06:34N 35°21' E 139°41'0 0.0
2015-Feb-27 05:33N 35°21' E 139°41'0 0.0
2015-Feb-27 04:33N 35°21' E 139°41'0 0.0
2015-Feb-27 03:33N 35°21' E 139°41'0 0.0
2015-Feb-27 02:33N 35°21' E 139°41'0 0.0
2015-Feb-27 01:33N 35°21' E 139°41'0 0.0
2015-Feb-27 00:33N 35°21' E 139°41'0 0.0
2015-Feb-26 23:33N 35°21' E 139°41'0 0.0
2015-Feb-26 22:33N 35°21' E 139°41'0 0.0
2015-Feb-26 21:33N 35°21' E 139°41'0 0.4
2015-Feb-26 20:33N 35°21' E 139°41'7 6.7
2015-Feb-26 19:31N 35°28' E 139°42'0 0.0
2015-Feb-26 18:31N 35°28' E 139°42'0 0.0
2015-Feb-26 17:31N 35°28' E 139°42'0 0.0
2015-Feb-26 16:31N 35°28' E 139°42'0 0.0
2015-Feb-26 15:31N 35°28' E 139°42'0 0.0
2015-Feb-26 14:31N 35°28' E 139°42'0 0.0
2015-Feb-26 13:31N 35°28' E 139°42'0 0.0
2015-Feb-26 12:31N 35°28' E 139°42'0 0.0
2015-Feb-26 11:31N 35°28' E 139°42'0 0.0
2015-Feb-26 10:28N 35°28' E 139°42'0 0.0
2015-Feb-26 09:31N 35°28' E 139°42'0 0.0
2015-Feb-26 08:31N 35°28' E 139°42'0 0.0
2015-Feb-26 07:31N 35°28' E 139°42'0 0.0
2015-Feb-26 06:28N 35°28' E 139°42'0 0.0
2015-Feb-26 05:31N 35°28' E 139°42'0 0.0
2015-Feb-26 04:31N 35°28' E 139°42'0 0.0
2015-Feb-26 03:31N 35°28' E 139°42'0 0.0
2015-Feb-26 02:28N 35°28' E 139°42'0 0.0
2015-Feb-26 01:31N 35°28' E 139°42'0 0.0
2015-Feb-26 00:31N 35°28' E 139°42'0 0.0
2015-Feb-25 18:13N 35°28' E 139°42'0 0.0
2015-Feb-25 17:31N 35°28' E 139°42'0 0.0
2015-Feb-25 16:31N 35°28' E 139°42'0 0.0
2015-Feb-25 15:31N 35°28' E 139°42'0 0.0
2015-Feb-25 14:31N 35°28' E 139°42'0 0.0
2015-Feb-25 13:30N 35°28' E 139°42'0 0.0
2015-Feb-25 12:30N 35°28' E 139°42'3 3.6
2015-Feb-25 11:34N 35°25' E 139°45'2 1.7
2015-Feb-25 10:32N 35°24' E 139°44'0 0.0
2015-Feb-25 09:32N 35°24' E 139°44'0 0.0
2015-Feb-25 08:32N 35°24' E 139°44'0 0.0
2015-Feb-25 07:32N 35°24' E 139°44'0 0.0
2015-Feb-25 06:32N 35°24' E 139°44'0 0.1
2015-Feb-25 05:32N 35°24' E 139°44'8 8.2
2015-Feb-25 04:33N 35°16' E 139°46'1111.0
2015-Feb-25 03:33N 35°05' E 139°45'  
Track history (hours):
 
Tides and Currents Weather Stations Pressure Air Temp Water Temp Dewpoint Dewpoint Depression Visibility Wind Speed Wind Dir Waves Ship Positions

Taiseimaru

Last reported at 2015-Feb-28 00:19 UTC. Time now 2015-Feb-28 23:08 UTC.
Position N 34°58' E 139°43'.

Length 84 m; draft 4.7 m.

Type: Cargo ship. MMSI: 431500568.

Date/timePositionNaut miles runAvg speedWind from/ knotsBaromVisibWave heightAir tempDewpointWater temp
2015-Feb-28 00:19N 34°58' E 139°43'811.1
2015-Feb-27 23:33N 35°06' E 139°44'1111.1
2015-Feb-27 22:33N 35°17' E 139°45'5 4.9
2015-Feb-27 21:32N 35°21' E 139°41'0 0.0
2015-Feb-27 20:34N 35°21' E 139°41'0 0.0
2015-Feb-27 19:34N 35°21' E 139°41'0 0.0
2015-Feb-27 18:33N 35°21' E 139°41'0 0.0
2015-Feb-27 17:33N 35°21' E 139°41'0 0.0
2015-Feb-27 16:33N 35°21' E 139°41'0 0.0
2015-Feb-27 15:33N 35°21' E 139°41'0 0.0
2015-Feb-27 14:33N 35°21' E 139°41'0 0.0
2015-Feb-27 13:33N 35°21' E 139°41'0 0.0
2015-Feb-27 12:33N 35°21' E 139°41'0 0.0
2015-Feb-27 11:33N 35°21' E 139°41'0 0.0
2015-Feb-27 10:31N 35°21' E 139°41'0 0.0
2015-Feb-27 09:31N 35°21' E 139°41'0 0.0
2015-Feb-27 08:31N 35°21' E 139°41'0 0.0
2015-Feb-27 07:31N 35°21' E 139°41'0 0.1
2015-Feb-27 06:34N 35°21' E 139°41'0 0.0
2015-Feb-27 05:33N 35°21' E 139°41'0 0.0
2015-Feb-27 04:33N 35°21' E 139°41'0 0.0
2015-Feb-27 03:33N 35°21' E 139°41'0 0.0
2015-Feb-27 02:33N 35°21' E 139°41'0 0.0
2015-Feb-27 01:33N 35°21' E 139°41'0 0.0
2015-Feb-27 00:33N 35°21' E 139°41'0 0.0
2015-Feb-26 23:33N 35°21' E 139°41'0 0.0
2015-Feb-26 22:33N 35°21' E 139°41'0 0.0
2015-Feb-26 21:33N 35°21' E 139°41'0 0.4
2015-Feb-26 20:33N 35°21' E 139°41'7 6.7
2015-Feb-26 19:31N 35°28' E 139°42'0 0.0
2015-Feb-26 18:31N 35°28' E 139°42'0 0.0
2015-Feb-26 17:31N 35°28' E 139°42'0 0.0
2015-Feb-26 16:31N 35°28' E 139°42'0 0.0
2015-Feb-26 15:31N 35°28' E 139°42'0 0.0
2015-Feb-26 14:31N 35°28' E 139°42'0 0.0
2015-Feb-26 13:31N 35°28' E 139°42'0 0.0
2015-Feb-26 12:31N 35°28' E 139°42'0 0.0
2015-Feb-26 11:31N 35°28' E 139°42'0 0.0
2015-Feb-26 10:28N 35°28' E 139°42'0 0.0
2015-Feb-26 09:31N 35°28' E 139°42'0 0.0
2015-Feb-26 08:31N 35°28' E 139°42'0 0.0
2015-Feb-26 07:31N 35°28' E 139°42'0 0.0
2015-Feb-26 06:28N 35°28' E 139°42'0 0.0
2015-Feb-26 05:31N 35°28' E 139°42'0 0.0
2015-Feb-26 04:31N 35°28' E 139°42'0 0.0
2015-Feb-26 03:31N 35°28' E 139°42'0 0.0
2015-Feb-26 02:28N 35°28' E 139°42'0 0.0
2015-Feb-26 01:31N 35°28' E 139°42'0 0.0
2015-Feb-26 00:31N 35°28' E 139°42'0 0.0
2015-Feb-25 18:13N 35°28' E 139°42'0 0.0
2015-Feb-25 17:31N 35°28' E 139°42'0 0.0
2015-Feb-25 16:31N 35°28' E 139°42'0 0.0
2015-Feb-25 15:31N 35°28' E 139°42'0 0.0
2015-Feb-25 14:31N 35°28' E 139°42'0 0.0
2015-Feb-25 13:30N 35°28' E 139°42'0 0.0
2015-Feb-25 12:30N 35°28' E 139°42'3 3.6
2015-Feb-25 11:34N 35°25' E 139°45'2 1.7
2015-Feb-25 10:32N 35°24' E 139°44'0 0.0
2015-Feb-25 09:32N 35°24' E 139°44'0 0.0
2015-Feb-25 08:32N 35°24' E 139°44'0 0.0
2015-Feb-25 07:32N 35°24' E 139°44'0 0.0
2015-Feb-25 06:32N 35°24' E 139°44'0 0.1
2015-Feb-25 05:32N 35°24' E 139°44'8 8.2
2015-Feb-25 04:33N 35°16' E 139°46'1111.0
2015-Feb-25 03:33N 35°05' E 139°45'  

Dump ship's entire track history